CYHKCYUT

Guest
Details From CYHK - Gjoa Haven
To CYUT - REPULSE BAY
Flight Number -
Tags generated
Created
Modified
Stats Distance 266 nm / 493 km
Max Altitude 19,100 ft / 5,822 m
Waypoints 5
Social Downloads 2
Likes 0
Share VATSIM

Download

Looking for another format? Having issues loading an existing format? Contact us
Advertisement - Login to hide

Notes

Basic altitude profile: - Ascent Rate: 2500ft/min - Ascent Speed: 250kts - Cruise Altitude: 7000ft - Cruise Speed: 420kts - Descent Rate: 2500ft/min - Descent Speed: 250kts Options: - Use NATs: yes - Use PACOTS: yes - Use low airways: yes - Use high airways: yes

Route

CYHK YHK 6800N09500W N6790 CYUT

ID Type Via Altitude Latitude Longitude Leg Dist Tot Dist Heading (true) Name
O CYHK APT - 0 ft / 0 m 68.63545˚ -95.85024˚ - 0 nm - Gjoa Haven
YHK NDB - 200 ft / 61 m 68.62611˚ -95.85833˚ 0 nm 0 nm 198° / 198° GJOA HAVEN NDB
6800N09500W LATLON - 15,200 ft / 4,633 m 68.00000˚ -95.00000˚ 42 nm 42 nm 153° / 154° -
N6790 FIX - 19,100 ft / 5,822 m 67.00000˚ -90.00000˚ 129 nm 172 nm 115° / 120° -
O CYUT APT - 0 ft / 0 m 66.52139˚ -86.22472˚ 93 nm 266 nm 106° / 110° REPULSE BAY

Altitude Profile

Advertisement - Login to hide

Weather


0- 5 10 15 20 25 30 35+ Temperature / ° C

Clouds and Precipitation
Forecast for 2018-05-26 18:00 UTC. Updated 4 hours ago

Ground ~20,000 ft ~40,000 ft Winds

CYHK

Details ICAO CYHK (YHK)
Name Gjoa Haven
Region Canada
Timezone America/Cambridge_Bay (UTC-6.0)
Stats Elevation 154 ft / 47 m (AMSL)
Location 68.635447° -95.850245°
Runways 1
Magnetic Variation 7.240° W

METAR

CYHK 262133Z AUTO 13007KT 7SM -SN FEW007 BKN010 OVC035 M03/M04 A2973 RMK SLP075

Decode

TAF

TAF AMD TAF AMD CYHK 262011Z 2620/2706 12008KT P6SM FEW006 OVC030 TEMPO 2620/2702 5SM -SN BR OVC006 FM270200 02010KT P6SM OVC008 TEMPO 2702/2706 2SM BR OVC004 RMK FCST BASED ON AUTO OBS. NXT FCST BY 270000Z

Decode

Departure Runways

ID Width Length Bearing (true) Bearing (mag) Surface Threshold Offset Overrun Length
13T 98 ft / 30 m 4,465 ft / 1,361 m 126.79° 134.03° Gravel 0 ft / 0 m 0 ft / 0 m
31T 98 ft / 30 m 4,465 ft / 1,361 m 306.81° 314.05° Gravel 0 ft / 0 m 0 ft / 0 m

CYUT

Details ICAO CYUT (YUT)
Name REPULSE BAY
Region Canada
Timezone America/Rankin_Inlet (UTC-5.0)
Stats Elevation 80 ft / 24 m (AMSL)
Location 66.521389° -86.224724°
Runways 1
Magnetic Variation 18.412° W

METAR

CYUT 262000Z 18007KT 3SM -SN OVC045 M02/M04 A2990 RMK SC8 SUN DIMLY VISBL -2.0/-6.0/0.4/7.0 SNW CVR/TRACE LOOSE LAST STFD OBS/NXT 271400Z SLP129

Decode

TAF

TAF AMD TAF AMD CYUT 261917Z 2619/2620 VRB03KT P6SM BKN040 OVC100 TEMPO 2619/2620 5SM -SN BKN020 OVC040 RMK NXT FCST WILL BE ISSUED AT 271545Z

Decode

Destination Runways

ID Width Length Bearing (true) Bearing (mag) Surface Threshold Offset Overrun Length
16T 100 ft / 30 m 3,392 ft / 1,034 m 161.02° 179.43° Gravel 0 ft / 0 m 0 ft / 0 m
34T 100 ft / 30 m 3,392 ft / 1,034 m 341.03° 359.44° Gravel 0 ft / 0 m 0 ft / 0 m